createdAt,value
2018-02-22T00:00:46.814Z,33.20
2018-02-22T00:03:14.453Z,33.30
2018-02-22T00:05:42.807Z,33.90
2018-02-22T00:08:10.424Z,36.50
2018-02-22T00:10:38.025Z,33.13
2018-02-22T00:13:05.571Z,38.50
2018-02-22T00:15:33.162Z,32.53
2018-02-22T00:18:01.500Z,37.13
2018-02-22T00:20:29.473Z,39.33
2018-02-22T00:22:57.028Z,35.53
2018-02-22T00:25:24.579Z,33.00
2018-02-22T00:27:52.169Z,34.37
2018-02-22T00:30:19.725Z,37.83
2018-02-22T00:32:47.305Z,35.20
2018-02-22T00:35:14.894Z,35.40
2018-02-22T00:37:42.473Z,30.90
2018-02-22T00:40:10.023Z,37.93
2018-02-22T00:42:37.862Z,38.00
2018-02-22T00:45:06.182Z,33.30
2018-02-22T00:47:33.742Z,37.50
2018-02-22T00:50:01.333Z,39.80
2018-02-22T00:52:28.953Z,33.67
2018-02-22T00:54:56.540Z,37.63
2018-02-22T00:57:24.102Z,34.70
2018-02-22T00:59:51.732Z,42.43
2018-02-22T01:02:19.282Z,44.17
2018-02-22T01:04:47.172Z,34.20
2018-02-22T01:07:14.704Z,36.10
2018-02-22T01:09:42.254Z,32.00
2018-02-22T01:12:09.823Z,36.90
2018-02-22T01:14:37.389Z,40.53
2018-02-22T01:17:05.084Z,41.43
2018-02-22T01:19:33.408Z,35.40
2018-02-22T01:22:01.764Z,41.90
2018-02-22T01:24:29.320Z,57.03
2018-02-22T01:26:57.164Z,47.80
2018-02-22T01:29:24.705Z,38.17
2018-02-22T01:31:52.248Z,40.53
2018-02-22T01:34:19.846Z,36.60
2018-02-22T01:36:47.389Z,38.00
2018-02-22T01:39:15.053Z,44.50
2018-02-22T01:41:42.698Z,43.03
2018-02-22T01:44:10.269Z,43.53
2018-02-22T01:46:37.814Z,41.37
2018-02-22T01:49:05.397Z,40.80
2018-02-22T01:51:32.943Z,34.50
2018-02-22T01:54:00.541Z,36.13
2018-02-22T01:56:28.094Z,35.90
2018-02-22T01:58:55.641Z,38.43
2018-02-22T02:01:23.173Z,41.10
2018-02-22T02:03:50.757Z,38.50
2018-02-22T02:06:18.349Z,38.17
2018-02-22T02:08:46.817Z,39.33
2018-02-22T02:11:14.407Z,43.83
2018-02-22T02:13:41.949Z,41.27
2018-02-22T02:16:10.311Z,31.73
2018-02-22T02:18:37.869Z,41.77
2018-02-22T02:21:05.409Z,43.57
2018-02-22T02:23:33.059Z,45.70
2018-02-22T02:26:00.596Z,49.63
2018-02-22T02:28:28.286Z,48.30
2018-02-22T02:30:55.841Z,47.47
2018-02-22T02:33:23.462Z,47.07
2018-02-22T02:35:51.782Z,48.33
2018-02-22T02:38:19.365Z,49.00
2018-02-22T02:40:46.980Z,43.57
2018-02-22T02:43:14.879Z,42.77
2018-02-22T02:45:42.448Z,48.10
2018-02-22T02:48:10.009Z,50.83
2018-02-22T02:50:37.704Z,46.60
2018-02-22T02:53:06.022Z,51.33
2018-02-22T02:55:33.622Z,48.20
2018-02-22T02:58:01.159Z,45.23
2018-02-22T03:00:28.761Z,60.23
2018-02-22T03:02:57.087Z,56.30
2018-02-22T03:05:24.681Z,47.33
2018-02-22T03:07:52.270Z,52.70
2018-02-22T03:10:20.169Z,48.13
2018-02-22T03:12:47.714Z,45.70
2018-02-22T03:15:15.256Z,48.17
2018-02-22T03:17:42.964Z,47.00
2018-02-22T03:20:10.522Z,44.40
2018-02-22T03:22:38.122Z,45.93
2018-02-22T03:25:06.465Z,39.70
2018-02-22T03:27:34.097Z,86.97
2018-02-22T03:30:02.418Z,45.83
2018-02-22T03:32:30.144Z,41.57
2018-02-22T03:34:57.768Z,52.67
2018-02-22T03:37:25.691Z,52.63
2018-02-22T03:39:53.250Z,52.00
2018-02-22T03:42:20.805Z,51.60
2018-02-22T03:44:48.476Z,55.23
2018-02-22T03:47:16.015Z,61.90
2018-02-22T03:49:43.594Z,48.97
2018-02-22T03:52:11.921Z,54.13
2018-02-22T03:54:39.530Z,50.17
2018-02-22T03:57:07.077Z,53.80
2018-02-22T03:59:35.058Z,45.80
2018-02-22T04:02:02.613Z,52.30
2018-02-22T04:04:30.166Z,54.60
2018-02-22T04:06:57.873Z,56.43
2018-02-22T04:09:26.185Z,49.90
2018-02-22T04:11:53.781Z,53.17
2018-02-22T04:14:21.341Z,56.10
2018-02-22T04:16:49.293Z,46.80
2018-02-22T04:19:16.840Z,59.83
2018-02-22T04:21:44.377Z,55.30
2018-02-22T04:24:11.989Z,63.33
2018-02-22T04:26:39.532Z,61.93
2018-02-22T04:29:07.392Z,54.63
2018-02-22T04:31:35.034Z,57.73
2018-02-22T04:34:02.637Z,59.87
2018-02-22T04:36:30.214Z,59.70
2018-02-22T04:38:58.538Z,61.17
2018-02-22T04:41:26.128Z,71.90
2018-02-22T04:43:53.728Z,59.50
2018-02-22T04:46:21.306Z,63.80
2018-02-22T04:48:48.878Z,61.30
2018-02-22T04:51:16.779Z,67.73
2018-02-22T04:53:44.337Z,58.07
2018-02-22T04:56:11.957Z,58.57
2018-02-22T04:58:39.549Z,73.70
2018-02-22T05:01:07.193Z,60.03
2018-02-22T05:03:34.857Z,60.30
2018-02-22T05:06:02.425Z,58.83
2018-02-22T05:08:30.285Z,69.87
2018-02-22T05:10:57.846Z,66.37
2018-02-22T05:13:25.408Z,64.80
2018-02-22T05:15:52.999Z,61.00
2018-02-22T05:18:20.554Z,72.47
2018-02-22T05:20:48.169Z,60.53
2018-02-22T05:23:16.901Z,59.07
2018-02-22T05:25:44.493Z,52.87
2018-02-22T05:28:12.896Z,65.03
2018-02-22T05:30:40.482Z,65.80
2018-02-22T05:33:08.040Z,72.23
2018-02-22T05:35:35.594Z,64.33
2018-02-22T05:38:03.185Z,73.57
2018-02-22T05:40:30.804Z,79.37
2018-02-22T05:42:58.378Z,65.77
2018-02-22T05:45:25.933Z,65.10
2018-02-22T05:47:53.525Z,58.53
2018-02-22T05:50:21.132Z,64.23
2018-02-22T05:52:48.824Z,62.43
2018-02-22T05:55:16.387Z,59.07
2018-02-22T05:57:43.941Z,64.03
2018-02-22T06:00:11.524Z,57.63
2018-02-22T06:02:39.092Z,57.53
2018-02-22T06:05:07.244Z,52.70
2018-02-22T06:07:34.794Z,59.30
2018-02-22T06:10:02.355Z,61.83
2018-02-22T06:12:30.906Z,60.07
2018-02-22T06:14:58.478Z,60.87
2018-02-22T06:17:26.057Z,58.13
2018-02-22T06:19:53.616Z,60.63
2018-02-22T06:22:21.972Z,58.33
2018-02-22T06:24:49.533Z,52.27
2018-02-22T06:27:17.085Z,60.37
2018-02-22T06:29:44.744Z,65.20
2018-02-22T06:32:12.304Z,50.17
2018-02-22T06:34:39.889Z,47.87
2018-02-22T06:37:07.428Z,47.17
2018-02-22T06:39:38.837Z,37.77
2018-02-22T06:42:07.146Z,42.57
2018-02-22T06:44:34.722Z,54.87
2018-02-22T06:47:02.262Z,54.37
2018-02-22T06:49:30.097Z,38.23
2018-02-22T06:51:58.428Z,62.53
2018-02-22T06:54:25.988Z,42.23
2018-02-22T06:56:53.582Z,41.93
2018-02-22T06:59:21.165Z,45.13
2018-02-22T07:01:49.571Z,48.90
2018-02-22T07:04:17.131Z,49.83
2018-02-22T07:06:44.715Z,55.73
2018-02-22T07:09:12.268Z,68.97
2018-02-22T07:11:40.248Z,55.70
2018-02-22T07:14:08.565Z,50.30
2018-02-22T07:16:36.881Z,45.37
2018-02-22T07:19:04.514Z,57.90
2018-02-22T07:21:32.099Z,56.97
2018-02-22T07:23:59.989Z,50.10
2018-02-22T07:26:27.525Z,56.80
2018-02-22T07:28:55.083Z,57.30
2018-02-22T07:31:22.661Z,44.83
2018-02-22T07:33:50.203Z,52.23
2018-02-22T07:36:17.829Z,61.73
2018-02-22T07:38:45.377Z,54.83
2018-02-22T07:41:13.733Z,67.00
2018-02-22T07:43:41.295Z,46.50
2018-02-22T07:46:08.880Z,63.87
2018-02-22T07:48:37.289Z,64.43
2018-02-22T07:51:04.846Z,70.53
2018-02-22T07:53:32.429Z,51.90
2018-02-22T07:56:00.011Z,58.03
2018-02-22T07:58:27.598Z,54.00
2018-02-22T08:00:55.150Z,54.67
2018-02-22T08:03:23.501Z,49.00
2018-02-22T08:05:51.083Z,58.40
2018-02-22T08:08:19.117Z,60.23
2018-02-22T08:10:46.725Z,60.13
2018-02-22T08:13:14.280Z,51.33
2018-02-22T08:15:42.637Z,62.87
2018-02-22T08:18:10.203Z,61.67
2018-02-22T08:20:37.833Z,67.73
2018-02-22T08:23:05.415Z,49.20
2018-02-22T08:25:33.000Z,37.97
2018-02-22T08:28:01.313Z,41.70
2018-02-22T08:30:28.857Z,49.30
2018-02-22T08:32:56.444Z,49.17
2018-02-22T08:35:24.014Z,49.43
2018-02-22T08:37:51.625Z,55.70
2018-02-22T08:40:19.160Z,43.37
2018-02-22T08:42:46.973Z,52.63
2018-02-22T08:45:14.529Z,54.03
2018-02-22T08:47:42.130Z,48.97
2018-02-22T08:50:10.439Z,64.67
2018-02-22T08:52:39.076Z,48.77
2018-02-22T08:55:06.758Z,51.90
2018-02-22T08:57:35.070Z,42.97
2018-02-22T09:00:02.673Z,56.27
2018-02-22T09:02:30.243Z,38.27
2018-02-22T09:04:57.847Z,51.67
2018-02-22T09:07:26.184Z,56.83
2018-02-22T09:09:53.887Z,27.23
2018-02-22T09:12:22.221Z,49.47
2018-02-22T09:14:49.820Z,45.47
2018-02-22T09:17:17.379Z,27.10
2018-02-22T09:19:45.992Z,36.67
2018-02-22T09:22:13.553Z,45.20
2018-02-22T09:24:41.101Z,42.03
2018-02-22T09:27:08.817Z,45.17
2018-02-22T09:29:36.512Z,33.73
2018-02-22T09:32:04.325Z,22.57
2018-02-22T09:34:31.881Z,39.30
2018-02-22T09:36:59.445Z,52.20
2018-02-22T09:39:27.022Z,24.07
2018-02-22T09:41:54.609Z,31.43
2018-02-22T09:44:22.925Z,41.43
2018-02-22T09:46:50.503Z,34.63
2018-02-22T09:49:18.106Z,32.27
2018-02-22T09:51:45.661Z,36.00
2018-02-22T09:54:14.013Z,25.03
2018-02-22T09:56:41.559Z,21.13
2018-02-22T09:59:09.181Z,35.47
2018-02-22T10:01:36.735Z,22.50
2018-02-22T10:04:04.280Z,36.93
2018-02-22T10:06:31.866Z,34.60
2018-02-22T10:08:59.432Z,30.90
2018-02-22T10:11:27.022Z,44.30
2018-02-22T10:13:54.569Z,26.10
2018-02-22T10:16:22.150Z,37.37
2018-02-22T10:18:49.704Z,33.63
2018-02-22T10:21:17.306Z,38.90
2018-02-22T10:23:44.845Z,27.77
2018-02-22T10:26:13.205Z,35.83
2018-02-22T10:28:40.755Z,19.53
2018-02-22T10:31:08.307Z,34.03
2018-02-22T10:33:35.928Z,35.77
2018-02-22T10:36:03.478Z,20.43
2018-02-22T10:38:31.054Z,18.83
2018-02-22T10:40:58.639Z,34.97
2018-02-22T10:43:26.245Z,22.33
2018-02-22T10:45:53.776Z,34.80
2018-02-22T10:48:21.842Z,14.33
2018-02-22T10:50:49.396Z,30.60
2018-02-22T10:53:16.946Z,29.30
2018-02-22T10:55:44.546Z,31.40
2018-02-22T10:58:12.098Z,33.90
2018-02-22T11:00:45.200Z,20.93
2018-02-22T11:03:12.752Z,22.93
2018-02-22T11:05:40.330Z,20.47
2018-02-22T11:08:07.863Z,20.10
2018-02-22T11:10:35.437Z,24.10
2018-02-22T11:13:02.983Z,22.00
2018-02-22T11:15:30.515Z,13.77
2018-02-22T11:17:58.101Z,16.03
2018-02-22T11:20:25.733Z,22.03
2018-02-22T11:22:53.931Z,17.30
2018-02-22T11:25:21.485Z,19.47
2018-02-22T11:27:49.071Z,22.00
2018-02-22T11:30:16.605Z,27.53
2018-02-22T11:32:44.193Z,6.30
2018-02-22T11:35:11.743Z,22.93
2018-02-22T11:37:40.102Z,15.30
2018-02-22T11:40:07.736Z,12.57
2018-02-22T11:42:35.295Z,12.40
2018-02-22T11:45:02.937Z,10.13
2018-02-22T11:47:30.470Z,15.27
2018-02-22T11:49:59.250Z,8.97
2018-02-22T11:52:26.830Z,13.83
2018-02-22T11:54:54.379Z,28.63
2018-02-22T11:57:21.987Z,10.83
2018-02-22T11:59:49.542Z,9.83
2018-02-22T12:02:17.192Z,16.10
2018-02-22T12:04:44.767Z,14.37
2018-02-22T12:07:12.314Z,7.20
2018-02-22T12:09:40.179Z,7.37
2018-02-22T12:12:07.730Z,15.27
2018-02-22T12:14:35.307Z,10.60
2018-02-22T12:17:02.853Z,11.90
2018-02-22T12:19:30.451Z,4.67
2018-02-22T12:21:58.017Z,9.83
2018-02-22T12:24:25.608Z,7.20
2018-02-22T12:26:53.916Z,13.00
2018-02-22T12:29:21.516Z,8.90
2018-02-22T12:31:49.066Z,23.30
2018-02-22T12:34:16.626Z,17.50
2018-02-22T12:36:44.254Z,14.50
2018-02-22T12:39:11.787Z,19.10
2018-02-22T12:41:40.134Z,13.30
2018-02-22T12:44:08.457Z,18.67
2018-02-22T12:46:36.044Z,16.57
2018-02-22T12:49:03.592Z,9.33
2018-02-22T12:51:31.427Z,7.00
2018-02-22T12:53:59.018Z,9.73
2018-02-22T12:56:26.547Z,15.50
2018-02-22T12:58:54.160Z,9.40
2018-02-22T13:01:21.732Z,8.63
2018-02-22T13:03:49.347Z,6.93
2018-02-22T13:06:16.882Z,5.57
2018-02-22T13:08:45.223Z,5.70
2018-02-22T13:11:14.618Z,9.63
2018-02-22T13:13:42.189Z,13.57
2018-02-22T13:16:09.736Z,11.73
2018-02-22T13:18:37.595Z,13.30
2018-02-22T13:21:05.153Z,21.20
2018-02-22T13:23:32.710Z,17.50
2018-02-22T13:26:00.289Z,7.50
2018-02-22T13:28:27.840Z,4.90
2018-02-22T13:30:55.422Z,13.97
2018-02-22T13:33:34.949Z,15.70
2018-02-22T13:36:02.589Z,9.73
2018-02-22T13:38:41.896Z,5.93
2018-02-22T13:41:10.234Z,13.70
2018-02-22T13:43:37.775Z,10.20
2018-02-22T13:46:05.652Z,9.87
2018-02-22T13:48:57.551Z,12.13
2018-02-22T13:51:25.121Z,9.70
2018-02-22T13:53:53.416Z,6.23
2018-02-22T13:56:32.829Z,11.70
2018-02-22T13:59:00.383Z,14.40
2018-02-22T14:01:39.937Z,7.43
2018-02-22T14:04:07.497Z,9.83
2018-02-22T14:06:35.041Z,14.80
2018-02-22T14:09:02.631Z,11.03
2018-02-22T14:11:30.184Z,5.10
2018-02-22T14:13:57.758Z,17.63
2018-02-22T14:16:25.313Z,13.73
2018-02-22T14:18:52.896Z,6.70
2018-02-22T14:21:20.445Z,6.63
2018-02-22T14:23:48.809Z,10.40
2018-02-22T14:26:16.390Z,17.27
2018-02-22T14:28:44.769Z,9.83
2018-02-22T14:31:12.340Z,8.97
2018-02-22T14:33:40.698Z,9.10
2018-02-22T14:36:08.251Z,15.30
2018-02-22T14:38:35.802Z,10.70
2018-02-22T14:41:03.428Z,7.87
2018-02-22T14:43:30.961Z,4.77
2018-02-22T14:45:58.556Z,5.67
2018-02-22T14:48:26.084Z,8.27
2018-02-22T14:50:56.660Z,9.03
2018-02-22T14:53:24.205Z,20.47
2018-02-22T14:55:51.769Z,14.17
2018-02-22T14:58:19.414Z,5.53
2018-02-22T15:00:52.627Z,14.63
2018-02-22T15:03:20.318Z,10.13
2018-02-22T15:05:47.918Z,18.20
2018-02-22T15:08:15.521Z,8.57
2018-02-22T15:10:43.062Z,13.10
2018-02-22T15:13:10.674Z,11.63
2018-02-22T15:15:38.374Z,12.60
2018-02-22T15:18:05.933Z,10.43
2018-02-22T15:20:34.411Z,9.63
2018-02-22T15:23:01.981Z,11.47
2018-02-22T15:25:29.645Z,4.63
2018-02-22T15:27:57.178Z,17.43
2018-02-22T15:30:24.761Z,10.83
2018-02-22T15:32:52.345Z,11.60
2018-02-22T15:35:19.989Z,18.60
2018-02-22T15:37:47.553Z,10.63
2018-02-22T15:40:15.116Z,18.43
2018-02-22T15:42:42.685Z,12.40
2018-02-22T15:45:10.227Z,11.00
2018-02-22T15:47:37.804Z,8.47
2018-02-22T15:50:05.338Z,15.37
2018-02-22T15:52:32.925Z,9.43
2018-02-22T15:55:00.489Z,6.30
2018-02-22T15:57:28.159Z,9.93
2018-02-22T15:59:55.694Z,7.83
2018-02-22T16:02:23.557Z,12.77
2018-02-22T16:04:51.123Z,13.67
2018-02-22T16:07:18.653Z,11.87
2018-02-22T16:09:46.257Z,15.40
2018-02-22T16:12:13.768Z,23.47
2018-02-22T16:14:41.346Z,19.90
2018-02-22T16:17:08.917Z,19.13
2018-02-22T16:19:36.486Z,20.37
2018-02-22T16:22:04.021Z,19.43
2018-02-22T16:24:31.920Z,20.43
2018-02-22T16:26:59.445Z,23.83
2018-02-22T16:29:26.978Z,26.43
2018-02-22T16:31:54.566Z,23.33
2018-02-22T16:34:22.115Z,16.37
2018-02-22T16:36:49.688Z,24.03
2018-02-22T16:39:17.232Z,26.00
2018-02-22T16:41:45.122Z,18.83
2018-02-22T16:44:12.666Z,16.17
2018-02-22T16:46:40.201Z,17.93
2018-02-22T16:49:07.786Z,21.40
2018-02-22T16:51:35.324Z,14.77
2018-02-22T16:54:02.921Z,25.30
2018-02-22T16:56:30.466Z,15.40
2018-02-22T16:58:58.033Z,8.50
2018-02-22T17:01:25.647Z,23.30
2018-02-22T17:03:54.023Z,18.60
2018-02-22T17:06:22.337Z,11.93
2018-02-22T17:08:49.870Z,14.80
2018-02-22T17:11:17.441Z,15.10
2018-02-22T17:13:44.967Z,17.57
2018-02-22T17:16:12.553Z,17.40
2018-02-22T17:18:40.092Z,16.13
2018-02-22T17:21:08.467Z,18.43
2018-02-22T17:23:36.028Z,17.60
2018-02-22T17:26:10.039Z,15.87
2018-02-22T17:28:43.900Z,18.90
2018-02-22T17:31:17.078Z,18.33
2018-02-22T17:33:44.663Z,19.20
2018-02-22T17:36:29.160Z,36.27
2018-02-22T17:39:03.001Z,19.10
2018-02-22T17:41:32.402Z,18.57
2018-02-22T17:43:59.982Z,22.87
2018-02-22T17:46:27.652Z,14.50
2018-02-22T17:48:55.221Z,18.93
2018-02-22T17:51:22.777Z,22.20
2018-02-22T17:53:50.424Z,18.00
2018-02-22T17:56:17.978Z,19.80
2018-02-22T17:58:47.562Z,16.27
2018-02-22T18:01:15.135Z,18.57
2018-02-22T18:03:42.685Z,18.57
2018-02-22T18:06:10.322Z,21.43
2018-02-22T18:08:38.656Z,18.77
2018-02-22T18:11:06.298Z,18.60
2018-02-22T18:13:33.861Z,21.83
2018-02-22T18:16:01.485Z,22.87
2018-02-22T18:18:29.030Z,24.60
2018-02-22T18:20:57.401Z,21.33
2018-02-22T18:23:25.107Z,27.97
2018-02-22T18:25:52.664Z,22.53
2018-02-22T18:28:20.254Z,22.23
2018-02-22T18:30:47.805Z,23.47
2018-02-22T18:33:15.432Z,19.17
2018-02-22T18:35:42.970Z,19.27
2018-02-22T18:38:11.273Z,19.80
2018-02-22T18:40:44.413Z,22.03
2018-02-22T18:43:17.600Z,26.47
2018-02-22T18:45:45.239Z,29.03
2018-02-22T18:48:12.795Z,32.33
2018-02-22T18:50:40.386Z,27.63
2018-02-22T18:53:07.959Z,24.27
2018-02-22T18:55:36.521Z,27.87
2018-02-22T18:58:04.060Z,21.93
2018-02-22T19:00:31.653Z,26.53
2018-02-22T19:02:59.241Z,26.63
2018-02-22T19:05:27.805Z,23.33
2018-02-22T19:07:55.404Z,29.80
2018-02-22T19:10:23.003Z,32.17
2018-02-22T19:12:50.593Z,24.60
2018-02-22T19:15:18.145Z,20.63
2018-02-22T19:17:45.986Z,26.97
2018-02-22T19:20:13.550Z,29.00
2018-02-22T19:22:41.513Z,28.70
2018-02-22T19:25:09.106Z,22.70
2018-02-22T19:27:36.656Z,20.07
2018-02-22T19:30:05.060Z,23.10
2018-02-22T19:32:32.690Z,55.57
2018-02-22T19:35:00.265Z,25.27
2018-02-22T19:37:28.591Z,31.33
2018-02-22T19:39:56.206Z,29.93
2018-02-22T19:42:24.570Z,30.43
2018-02-22T19:44:52.133Z,23.40
2018-02-22T19:47:19.722Z,24.30
2018-02-22T19:49:47.289Z,24.17
2018-02-22T19:52:14.895Z,23.33
2018-02-22T19:54:43.241Z,23.30
2018-02-22T19:57:10.822Z,21.50
2018-02-22T19:59:38.389Z,20.77
2018-02-22T20:02:06.035Z,26.10
2018-02-22T20:04:33.606Z,30.40
2018-02-22T20:07:01.145Z,26.83
2018-02-22T20:09:28.735Z,22.43
2018-02-22T20:11:56.276Z,18.20
2018-02-22T20:14:24.375Z,26.40
2018-02-22T20:16:51.921Z,26.43
2018-02-22T20:19:19.543Z,30.80
2018-02-22T20:21:47.122Z,23.90
2018-02-22T20:24:14.657Z,22.20
2018-02-22T20:26:42.349Z,26.20
2018-02-22T20:29:09.899Z,27.50
2018-02-22T20:31:37.480Z,21.23
2018-02-22T20:34:05.072Z,24.20
2018-02-22T20:36:32.659Z,28.77
2018-02-22T20:39:00.213Z,33.87
2018-02-22T20:41:28.123Z,26.20
2018-02-22T20:43:55.729Z,29.50
2018-02-22T20:46:23.265Z,21.73
2018-02-22T20:48:50.985Z,28.27
2018-02-22T20:51:37.233Z,24.60
2018-02-22T20:54:05.576Z,30.30
2018-02-22T20:56:33.201Z,27.07
2018-02-22T20:59:00.785Z,24.53
2018-02-22T21:01:28.339Z,39.47
2018-02-22T21:03:56.010Z,30.03
2018-02-22T21:06:23.585Z,25.60
2018-02-22T21:08:51.229Z,36.10
2018-02-22T21:11:18.802Z,32.50
2018-02-22T21:13:46.352Z,32.43
2018-02-22T21:16:13.924Z,31.37
2018-02-22T21:18:41.548Z,27.77
2018-02-22T21:21:09.164Z,32.77
2018-02-22T21:23:36.736Z,40.70
2018-02-22T21:26:04.371Z,28.23
2018-02-22T21:28:31.909Z,36.23
2018-02-22T21:30:59.497Z,31.30
2018-02-22T21:33:27.070Z,43.63
2018-02-22T21:35:55.572Z,35.63
2018-02-22T21:38:23.174Z,32.00
2018-02-22T21:40:51.474Z,34.60
2018-02-22T21:43:19.069Z,43.17
2018-02-22T21:45:46.635Z,35.27
2018-02-22T21:48:14.212Z,28.93
2018-02-22T21:50:42.397Z,32.70
2018-02-22T21:53:10.097Z,38.93
2018-02-22T21:55:37.639Z,39.70
2018-02-22T21:58:05.221Z,37.87
2018-02-22T22:00:32.769Z,34.10
2018-02-22T22:03:00.318Z,42.53
2018-02-22T22:05:27.901Z,40.43
2018-02-22T22:07:56.367Z,40.93
2018-02-22T22:10:23.986Z,42.60
2018-02-22T22:12:51.544Z,43.63
2018-02-22T22:15:19.154Z,38.07
2018-02-22T22:17:46.714Z,40.37
2018-02-22T22:20:14.397Z,37.80
2018-02-22T22:22:42.720Z,39.57
2018-02-22T22:25:10.261Z,37.10
2018-02-22T22:27:37.878Z,44.07
2018-02-22T22:30:05.472Z,50.83
2018-02-22T22:32:33.111Z,35.70
2018-02-22T22:35:00.673Z,27.40
2018-02-22T22:37:29.026Z,41.73
2018-02-22T22:39:56.581Z,37.23
2018-02-22T22:42:24.285Z,35.00
2018-02-22T22:44:51.849Z,37.90
2018-02-22T22:47:19.502Z,45.27
2018-02-22T22:49:47.805Z,39.73
2018-02-22T22:52:15.352Z,38.67
2018-02-22T22:54:42.962Z,37.80
2018-02-22T22:57:10.505Z,44.80
2018-02-22T22:59:38.107Z,42.67
2018-02-22T23:02:06.478Z,52.13
2018-02-22T23:04:34.029Z,44.70
2018-02-22T23:07:01.656Z,36.23
2018-02-22T23:09:29.233Z,43.53
2018-02-22T23:11:56.860Z,44.53
2018-02-22T23:14:24.377Z,40.77
2018-02-22T23:16:52.086Z,39.57
2018-02-22T23:19:19.628Z,31.00
2018-02-22T23:21:47.214Z,51.77
2018-02-22T23:24:14.765Z,32.90
2018-02-22T23:26:42.753Z,41.03
2018-02-22T23:29:10.307Z,37.00
2018-02-22T23:31:37.857Z,44.97
2018-02-22T23:34:05.432Z,36.30
2018-02-22T23:36:32.989Z,34.77
2018-02-22T23:39:00.581Z,43.60
2018-02-22T23:41:33.841Z,32.17
2018-02-22T23:44:01.422Z,41.63
2018-02-22T23:46:28.975Z,31.03
2018-02-22T23:48:56.568Z,39.60
2018-02-22T23:51:24.124Z,42.07
2018-02-22T23:53:51.693Z,28.40
2018-02-22T23:56:19.265Z,39.27
2018-02-22T23:58:46.817Z,33.93
